Jefferson, Pennsylvania
Current Conditions -  °F | °C
As of 3:53 AM on Friday 19 Dec 2014 (Local Time) from KMGW Reporting Station
Overcast Overcast  
Wind Chill: 22°   Ceiling: 1600
Heat Index: 27°   Visibility: 10mi
Dew Point: 19°   Wind: 5mph
Humidity: 72%   Direction: NA
Pressure: 30.17"   Gusts: NA
Location:  39.93°N, 80.06°W
Report Text: KMGW 190853Z AUTO VRB04KT 10SM OVC016 M03/M07 A3017 RMK AO2 SLP232 T10281072 53003 TSNO
Loading
Personal Weather Stations






























Interactive Weather Map New forecast layout! Learn more

10-Day Weather Forecast

Advertisements
Track Severe Weather on mobile